Time;durP1;ratioP1;P1;durP2;ratioP2;P2;SDS_P1;SDS_P2;PMS_P1;PMS_P2;Temp;Humidity;BMP_temperature;BMP_pressure;BME280_temperature;BME280_humidity;BME280_pressure;Samples;Min_cycle;Max_cycle;Signal;HPM_P1;HPM_P2
2021/08/07 00:02:00;;;;;;;9.30;2.10;;;;;;;26.87;40.86;99097.06;4484330;32;33553;-64
2021/08/07 00:04:28;;;;;;;5.97;2.10;;;;;;;26.86;40.85;99095.41;4484613;32;34260;-64
2021/08/07 00:06:56;;;;;;;5.90;2.28;;;;;;;26.84;40.84;99092.13;4484648;32;33597;-63
2021/08/07 00:09:23;;;;;;;4.78;2.20;;;;;;;26.84;40.85;99100.34;4484483;32;33893;-64
2021/08/07 00:11:51;;;;;;;4.00;2.12;;;;;;;26.84;40.75;99103.06;4483382;32;34058;-64
2021/08/07 00:14:18;;;;;;;4.60;2.05;;;;;;;26.83;40.79;99104.16;4484307;32;34219;-63
2021/08/07 00:16:46;;;;;;;3.67;2.17;;;;;;;26.80;40.82;99102.78;4483722;32;34587;-64
2021/08/07 00:19:15;;;;;;;4.53;2.17;;;;;;;26.80;40.92;99100.03;4484577;32;34298;-63
2021/08/07 00:21:42;;;;;;;5.28;2.22;;;;;;;26.80;40.90;99100.03;4484574;32;33320;-63
2021/08/07 00:24:10;;;;;;;5.75;2.20;;;;;;;26.79;40.83;99101.13;4484378;32;34006;-63
2021/08/07 00:26:38;;;;;;;5.68;2.28;;;;;;;26.79;40.73;99105.78;4484509;32;33825;-64
2021/08/07 00:29:06;;;;;;;4.80;2.45;;;;;;;26.78;40.70;99107.69;4457358;32;33278;-64
2021/08/07 00:31:33;;;;;;;5.10;2.17;;;;;;;26.77;40.82;99103.31;4484259;32;34873;-63
2021/08/07 00:34:01;;;;;;;6.30;2.40;;;;;;;26.77;40.78;99097.03;4483673;32;34594;-64
2021/08/07 00:36:29;;;;;;;5.72;2.12;;;;;;;26.76;40.88;99100.84;4484616;32;34241;-65
2021/08/07 00:39:03;;;;;;;6.32;2.37;;;;;;;26.76;40.86;99098.09;4483257;32;33684;-64
2021/08/07 00:41:31;;;;;;;3.65;2.22;;;;;;;26.76;40.90;99100.84;4484320;32;34016;-63
2021/08/07 00:43:58;;;;;;;5.45;2.25;;;;;;;26.74;40.91;99094.81;4484407;32;34037;-64
2021/08/07 00:46:27;;;;;;;4.93;2.37;;;;;;;26.74;40.93;99094.81;4484663;32;34112;-64
2021/08/07 00:48:55;;;;;;;4.62;2.20;;;;;;;26.73;40.90;99083.03;4484591;32;33855;-64
2021/08/07 00:51:24;;;;;;;5.10;1.83;;;;;;;26.71;40.94;99088.75;4483508;32;34937;-63
2021/08/07 00:53:53;;;;;;;6.05;2.37;;;;;;;26.71;40.92;99091.50;4484264;32;33465;-65
2021/08/07 00:56:21;;;;;;;4.90;2.28;;;;;;;26.71;40.90;99094.25;4484518;32;33227;-64
2021/08/07 00:58:48;;;;;;;3.95;2.00;;;;;;;26.71;40.99;99101.63;4484198;32;34345;-64
2021/08/07 01:01:17;;;;;;;4.45;2.05;;;;;;;26.70;41.00;99102.72;4484436;32;34836;-65
2021/08/07 01:03:47;;;;;;;3.87;2.12;;;;;;;26.71;40.94;99109.84;4482642;32;34088;-63
2021/08/07 01:06:29;;;;;;;4.27;2.00;;;;;;;26.69;41.00;99101.09;4469990;32;33743;-64
2021/08/07 01:09:08;;;;;;;3.67;2.20;;;;;;;26.71;40.95;99104.38;4482582;32;33623;-64
2021/08/07 01:11:55;;;;;;;3.90;2.30;;;;;;;26.71;40.93;99099.72;4484002;32;34893;-63
2021/08/07 01:14:28;;;;;;;5.93;2.20;;;;;;;26.68;40.95;99100.25;4471720;32;34624;-65
2021/08/07 01:16:56;;;;;;;5.55;2.15;;;;;;;26.67;40.93;99090.41;4470476;32;34745;-64
2021/08/07 01:19:24;;;;;;;3.15;1.98;;;;;;;26.67;40.88;99095.03;4469946;32;33436;-64
2021/08/07 01:21:59;;;;;;;3.45;2.20;;;;;;;26.66;40.88;99096.13;4470019;32;34092;-64
2021/08/07 01:24:46;;;;;;;4.57;2.33;;;;;;;26.67;40.83;99100.50;4469615;32;34019;-63
2021/08/07 01:27:31;;;;;;;3.72;1.90;;;;;;;26.67;40.84;99106.81;4470019;32;34641;-64
2021/08/07 01:29:59;;;;;;;3.40;1.90;;;;;;;26.65;40.79;99103.50;4484011;32;34833;-64
2021/08/07 01:32:31;;;;;;;5.97;2.22;;;;;;;26.63;40.80;99105.72;4482682;32;33693;-65
2021/08/07 01:34:59;;;;;;;4.20;2.15;;;;;;;26.63;40.84;99102.16;4482761;32;33590;-64
2021/08/07 01:37:27;;;;;;;5.05;2.20;;;;;;;26.62;40.86;99104.03;4469917;32;34311;-63
2021/08/07 01:39:57;;;;;;;3.78;1.75;;;;;;;26.62;40.80;99109.50;4469693;32;33851;-64
2021/08/07 01:42:26;;;;;;;3.42;2.10;;;;;;;26.62;40.79;99108.69;4470909;32;34155;-64
2021/08/07 01:44:54;;;;;;;5.47;2.55;;;;;;;26.62;40.81;99116.91;4484741;32;34699;-64
2021/08/07 01:47:43;;;;;;;5.25;2.17;;;;;;;26.62;40.85;99114.16;4485763;32;33237;-63
2021/08/07 01:50:19;;;;;;;4.57;2.20;;;;;;;26.64;40.78;99106.53;4485786;32;34939;-64
2021/08/07 01:52:47;;;;;;;3.55;1.87;;;;;;;26.61;40.69;99109.78;4471919;32;33676;-64
2021/08/07 01:55:24;;;;;;;3.67;1.90;;;;;;;26.60;40.73;99103.50;4471639;32;34135;-65
2021/08/07 01:58:04;;;;;;;4.15;2.20;;;;;;;26.59;40.71;99104.59;4471920;32;33666;-65
2021/08/07 02:00:32;;;;;;;4.05;2.25;;;;;;;26.59;40.68;99106.50;4483975;32;33941;-65
2021/08/07 02:03:00;;;;;;;3.15;1.90;;;;;;;26.59;40.69;99106.50;4471203;32;33782;-63
2021/08/07 02:05:28;;;;;;;3.20;1.80;;;;;;;26.57;40.68;99104.00;4471454;32;33945;-64
2021/08/07 02:07:56;;;;;;;3.37;1.95;;;;;;;26.56;40.65;99107.84;4484531;32;34597;-63
2021/08/07 02:10:24;;;;;;;4.40;2.30;;;;;;;26.55;40.69;99106.19;4484046;32;33845;-64
2021/08/07 02:12:53;;;;;;;6.10;1.85;;;;;;;26.55;40.75;99110.84;4484628;32;34110;-65
2021/08/07 02:15:21;;;;;;;4.12;2.37;;;;;;;26.56;40.73;99102.37;4483640;32;33578;-64
2021/08/07 02:17:49;;;;;;;6.10;2.00;;;;;;;26.55;40.80;99105.38;4484365;32;33439;-64
2021/08/07 02:20:18;;;;;;;3.37;2.30;;;;;;;26.54;40.82;99107.28;4471512;32;33903;-63
2021/08/07 02:22:46;;;;;;;5.90;2.40;;;;;;;26.54;40.82;99112.75;4484469;32;34118;-64
2021/08/07 02:25:14;;;;;;;5.68;2.20;;;;;;;26.53;40.88;99108.34;4484023;32;33881;-64
2021/08/07 02:27:42;;;;;;;4.97;2.30;;;;;;;26.53;40.83;99110.28;4483966;32;33387;-65
2021/08/07 02:30:10;;;;;;;5.40;2.28;;;;;;;26.52;40.80;99103.97;4485643;32;33526;-64
2021/08/07 02:32:39;;;;;;;4.25;2.00;;;;;;;26.52;40.85;99108.63;4470733;32;33661;-65
2021/08/07 02:35:09;;;;;;;3.20;1.80;;;;;;;26.51;40.84;99118.75;4471513;32;33633;-63
2021/08/07 02:37:37;;;;;;;3.23;2.03;;;;;;;26.50;40.77;99111.63;4485385;32;33453;-66
2021/08/07 02:40:07;;;;;;;3.40;2.10;;;;;;;26.50;40.79;99114.38;4471241;32;34897;-63
2021/08/07 02:42:37;;;;;;;4.72;2.03;;;;;;;26.51;40.79;99123.41;4484038;32;34887;-64
2021/08/07 02:45:08;;;;;;;8.63;2.10;;;;;;;26.49;40.70;99115.47;4471330;32;34044;-64
2021/08/07 02:47:36;;;;;;;4.12;2.22;;;;;;;26.48;40.76;99115.72;4485471;32;34490;-63
2021/08/07 02:50:04;;;;;;;3.35;2.10;;;;;;;26.48;40.69;99122.00;4470682;32;34677;-66
2021/08/07 02:52:34;;;;;;;5.62;2.17;;;;;;;26.47;40.61;99123.09;4484914;32;34047;-64
2021/08/07 02:55:03;;;;;;;3.55;1.98;;;;;;;26.47;40.62;99122.28;4483809;32;33985;-65
2021/08/07 02:57:31;;;;;;;4.60;2.12;;;;;;;26.48;40.60;99126.66;4483670;32;33410;-65
2021/08/07 02:59:59;;;;;;;3.20;1.90;;;;;;;26.45;40.59;99123.38;4483732;32;34618;-64
2021/08/07 03:02:26;;;;;;;5.07;2.00;;;;;;;26.44;40.62;99127.19;4470995;32;34010;-64
2021/08/07 03:04:56;;;;;;;3.42;1.92;;;;;;;26.45;40.70;99128.03;4469646;32;33973;-64
2021/08/07 03:07:24;;;;;;;4.55;2.15;;;;;;;26.44;40.60;99129.94;4469444;32;34567;-64
2021/08/07 03:09:51;;;;;;;3.53;1.83;;;;;;;26.45;40.58;99136.22;4469260;32;33745;-64
2021/08/07 03:12:19;;;;;;;3.15;1.87;;;;;;;26.43;40.53;99131.00;4469320;32;33574;-65
2021/08/07 03:14:47;;;;;;;6.50;2.60;;;;;;;26.43;40.48;99135.66;4469544;32;33984;-64
2021/08/07 03:17:15;;;;;;;4.10;2.05;;;;;;;26.42;40.53;99137.53;4469522;32;33639;-66
2021/08/07 03:19:43;;;;;;;3.30;2.00;;;;;;;26.41;40.51;99140.53;4469280;32;34692;-65
2021/08/07 03:22:12;;;;;;;4.25;1.90;;;;;;;26.40;40.61;99144.38;4469438;32;34198;-64
2021/08/07 03:24:40;;;;;;;5.25;1.90;;;;;;;26.41;40.57;99137.81;4469399;32;34683;-64
2021/08/07 03:27:08;;;;;;;5.53;2.30;;;;;;;26.40;40.56;99149.84;4469070;32;34056;-65
2021/08/07 03:29:37;;;;;;;4.05;2.20;;;;;;;26.39;40.61;99150.91;4469566;32;33879;-64
2021/08/07 03:32:05;;;;;;;5.57;2.00;;;;;;;26.38;40.57;99147.34;4469339;32;34190;-65
2021/08/07 03:34:36;;;;;;;4.45;2.08;;;;;;;26.38;40.68;99146.53;4469047;32;35324;-64
2021/08/07 03:37:03;;;;;;;3.35;2.05;;;;;;;26.38;40.71;99152.00;4469429;32;33237;-63
2021/08/07 03:39:31;;;;;;;3.12;1.75;;;;;;;26.37;40.63;99153.91;4469359;32;34139;-64
2021/08/07 03:41:59;;;;;;;6.55;2.17;;;;;;;26.35;40.68;99156.09;4468846;32;34165;-64
2021/08/07 03:44:28;;;;;;;3.93;2.20;;;;;;;26.36;40.68;99156.91;4469368;32;33861;-64
2021/08/07 03:46:55;;;;;;;4.00;2.03;;;;;;;26.35;40.59;99158.00;4469023;32;33538;-64
2021/08/07 03:49:23;;;;;;;3.70;2.00;;;;;;;26.35;40.67;99166.22;4469183;32;33948;-65
2021/08/07 03:51:51;;;;;;;8.05;2.12;;;;;;;26.34;40.70;99161.81;4469089;32;34101;-63
2021/08/07 03:54:19;;;;;;;7.43;2.12;;;;;;;26.34;40.67;99164.53;4469358;32;34759;-64
2021/08/07 03:56:50;;;;;;;5.32;2.20;;;;;;;26.33;40.68;99171.09;4469038;32;34457;-63
2021/08/07 03:59:18;;;;;;;3.70;1.95;;;;;;;26.34;40.63;99172.75;4468679;32;34744;-66
2021/08/07 04:01:46;;;;;;;4.20;2.17;;;;;;;26.33;40.61;99180.13;4469060;32;34987;-65
2021/08/07 04:04:14;;;;;;;3.75;1.98;;;;;;;26.32;40.65;99181.22;4479953;32;33594;-63
2021/08/07 04:06:42;;;;;;;5.43;1.95;;;;;;;26.32;40.61;99178.47;4484843;32;34155;-65
2021/08/07 04:09:13;;;;;;;2.87;1.73;;;;;;;26.32;40.61;99174.94;4484879;32;33908;-63
2021/08/07 04:11:41;;;;;;;4.20;2.03;;;;;;;26.30;40.73;99171.59;4484983;32;33753;-64
2021/08/07 04:14:08;;;;;;;6.28;1.98;;;;;;;26.30;40.74;99171.59;4484427;32;33615;-64
2021/08/07 04:16:36;;;;;;;4.65;2.10;;;;;;;26.29;40.71;99159.84;4468872;32;33664;-64
2021/08/07 04:19:04;;;;;;;5.72;2.22;;;;;;;26.30;40.64;99160.66;4468931;32;34039;-63
2021/08/07 04:21:32;;;;;;;6.72;2.22;;;;;;;26.29;40.77;99161.75;4468804;32;35175;-65
2021/08/07 04:23:59;;;;;;;3.92;2.08;;;;;;;26.30;40.87;99155.19;4468835;32;34801;-63
2021/08/07 04:26:27;;;;;;;5.70;2.40;;;;;;;26.28;40.88;99162.84;4468768;32;33770;-64
2021/08/07 04:28:55;;;;;;;3.75;2.00;;;;;;;26.29;40.84;99161.75;4469030;32;34038;-63
2021/08/07 04:31:22;;;;;;;3.62;1.95;;;;;;;26.28;40.95;99157.38;4468841;32;34892;-65
2021/08/07 04:33:50;;;;;;;4.68;2.20;;;;;;;26.28;40.96;99163.69;4468914;32;33841;-62
2021/08/07 04:36:18;;;;;;;3.60;2.28;;;;;;;26.27;41.01;99167.50;4468927;32;34171;-63
2021/08/07 04:38:45;;;;;;;5.70;2.20;;;;;;;26.27;41.07;99162.03;4468898;32;33859;-63
2021/08/07 04:41:13;;;;;;;3.35;2.20;;;;;;;26.28;41.11;99165.59;4468943;32;34849;-62
2021/08/07 04:43:41;;;;;;;4.55;2.10;;;;;;;26.27;41.18;99163.94;4467548;32;34051;-63
2021/08/07 04:46:09;;;;;;;6.50;2.25;;;;;;;26.26;41.30;99168.59;4468733;32;34024;-63
2021/08/07 04:48:37;;;;;;;5.10;1.85;;;;;;;26.26;41.30;99168.59;4468669;32;34770;-64
2021/08/07 04:51:05;;;;;;;3.83;2.12;;;;;;;26.27;41.21;99172.16;4468794;32;34643;-66
2021/08/07 04:53:33;;;;;;;3.92;1.92;;;;;;;26.26;41.26;99165.84;4468486;32;34545;-63
2021/08/07 04:56:01;;;;;;;3.55;2.03;;;;;;;26.26;41.34;99163.13;4468579;32;33942;-63
2021/08/07 04:58:30;;;;;;;8.10;2.10;;;;;;;26.26;41.41;99167.78;4468507;32;33911;-63
2021/08/07 05:03:45;;;;;;;3.60;1.87;;;;;;;26.26;41.54;99174.06;4476846;32;34306;-63
2021/08/07 05:06:14;;;;;;;3.28;1.98;;;;;;;26.26;41.65;99168.59;4483479;32;33663;-64
2021/08/07 05:08:42;;;;;;;5.57;2.00;;;;;;;26.27;41.74;99174.88;4482971;32;35328;-64
2021/08/07 05:11:09;;;;;;;5.35;2.17;;;;;;;26.26;41.82;99174.06;4483993;32;33809;-63
2021/08/07 05:13:37;;;;;;;4.20;1.95;;;;;;;26.27;41.89;99174.88;4483774;32;33784;-64
2021/08/07 05:16:04;;;;;;;5.62;2.10;;;;;;;26.27;41.92;99183.91;4482891;32;33191;-65
2021/08/07 05:18:32;;;;;;;8.20;2.03;;;;;;;26.28;41.99;99184.72;4484053;32;34271;-63
2021/08/07 05:21:00;;;;;;;7.03;2.40;;;;;;;26.29;42.06;99194.59;4484035;31;32886;-63
2021/08/07 05:23:29;;;;;;;7.70;1.87;;;;;;;26.30;42.07;99190.75;4483341;32;34234;-63
2021/08/07 05:25:57;;;;;;;5.72;2.35;;;;;;;26.30;42.17;99188.03;4482798;32;32159;-62
2021/08/07 05:28:24;;;;;;;3.10;1.77;;;;;;;26.30;42.25;99190.75;4483930;32;33652;-62
2021/08/07 05:30:52;;;;;;;6.45;2.20;;;;;;;26.30;42.27;99188.88;4483706;32;34421;-63
2021/08/07 05:33:20;;;;;;;5.57;1.95;;;;;;;26.32;42.27;99191.34;4483900;32;34066;-63
2021/08/07 05:35:49;;;;;;;2.65;1.67;;;;;;;26.32;42.37;99194.06;4483716;32;33833;-62
2021/08/07 05:38:17;;;;;;;6.75;2.30;;;;;;;26.32;42.38;99194.91;4483794;32;33472;-63
2021/08/07 05:40:45;;;;;;;5.32;2.20;;;;;;;26.32;42.52;99192.16;4481566;32;35352;-62
2021/08/07 05:43:12;;;;;;;5.07;2.25;;;;;;;26.33;42.52;99192.97;4482508;32;33867;-63
2021/08/07 05:45:40;;;;;;;6.37;2.30;;;;;;;26.34;42.58;99191.88;4481710;32;32104;-63
2021/08/07 05:48:08;;;;;;;6.12;1.90;;;;;;;26.33;42.86;99196.53;4483286;32;33884;-63
2021/08/07 05:50:37;;;;;;;4.50;1.87;;;;;;;26.34;42.54;99198.19;4483775;32;34077;-65
2021/08/07 05:53:05;;;;;;;3.58;2.00;;;;;;;26.35;42.48;99197.12;4483631;32;33945;-64
2021/08/07 05:55:33;;;;;;;3.85;1.95;;;;;;;26.36;42.42;99203.41;4483550;32;33427;-65
2021/08/07 05:58:02;;;;;;;3.22;1.67;;;;;;;26.37;42.56;99205.06;4482575;32;34024;-67
2021/08/07 06:00:31;;;;;;;4.87;2.10;;;;;;;26.36;42.55;99201.50;4483603;32;33982;-68
2021/08/07 06:02:59;;;;;;;4.53;2.03;;;;;;;26.36;42.50;99201.50;4481943;32;33767;-64
2021/08/07 06:05:27;;;;;;;3.67;1.75;;;;;;;26.37;42.46;99197.66;4483549;32;33653;-66
2021/08/07 06:07:56;;;;;;;3.33;2.10;;;;;;;26.37;42.46;99192.19;4483226;32;33714;-66
2021/08/07 06:10:24;;;;;;;3.08;1.83;;;;;;;26.37;42.48;99197.66;4482963;32;33703;-66
2021/08/07 06:12:51;;;;;;;6.40;1.85;;;;;;;26.38;42.46;99201.22;4483331;32;33918;-66
2021/08/07 06:15:20;;;;;;;3.70;1.70;;;;;;;26.38;42.48;99193.03;4481440;32;33394;-66
2021/08/07 06:17:48;;;;;;;4.47;1.77;;;;;;;26.38;42.43;99195.75;4482865;32;33869;-65
2021/08/07 06:20:17;;;;;;;4.95;2.10;;;;;;;26.39;42.62;99202.88;4481692;32;32774;-65
2021/08/07 06:22:44;;;;;;;6.95;2.10;;;;;;;26.39;42.70;99200.13;4481946;32;34588;-66
2021/08/07 06:25:13;;;;;;;4.03;2.03;;;;;;;26.39;42.49;99198.25;4482978;32;34270;-67
2021/08/07 06:27:41;;;;;;;4.32;1.70;;;;;;;26.39;42.41;99195.50;4483167;32;34608;-65
2021/08/07 06:30:09;;;;;;;3.33;1.80;;;;;;;26.39;42.46;99200.13;4484990;32;33645;-67
2021/08/07 06:32:37;;;;;;;5.32;1.83;;;;;;;26.39;42.58;99200.13;4481304;32;34191;-64
2021/08/07 06:35:05;;;;;;;4.78;1.67;;;;;;;26.39;42.68;99195.50;4469327;32;33481;-68
2021/08/07 06:37:32;;;;;;;4.35;1.80;;;;;;;26.39;42.83;99191.94;4469319;32;33958;-65
2021/08/07 06:40:00;;;;;;;3.47;1.98;;;;;;;26.40;42.90;99199.91;4469629;32;33690;-65
2021/08/07 06:42:28;;;;;;;3.67;1.80;;;;;;;26.41;42.97;99201.53;4455738;32;32343;-68
2021/08/07 06:44:56;;;;;;;3.87;1.80;;;;;;;26.41;43.08;99211.66;4469668;32;33451;-66
2021/08/07 06:47:24;;;;;;;4.43;2.58;;;;;;;26.41;42.97;99212.47;4468601;32;34536;-65
2021/08/07 06:49:51;;;;;;;4.87;1.80;;;;;;;26.42;42.98;99211.38;4468318;32;33707;-66
2021/08/07 06:52:19;;;;;;;6.72;1.90;;;;;;;26.43;42.96;99204.84;4469212;32;34158;-67
2021/08/07 06:54:47;;;;;;;6.82;1.95;;;;;;;26.44;42.97;99216.66;4469558;32;33285;-65
2021/08/07 06:57:19;;;;;;;8.35;3.00;;;;;;;26.45;43.25;99204.62;4468043;32;34130;-65
2021/08/07 06:59:46;;;;;;;5.90;2.10;;;;;;;26.44;43.24;99206.53;4468198;32;34250;-64
2021/08/07 07:02:14;;;;;;;4.25;1.83;;;;;;;26.46;43.22;99209.00;4469187;32;33959;-64
2021/08/07 07:04:42;;;;;;;3.60;2.00;;;;;;;26.47;43.39;99215.28;4482034;32;33136;-64
2021/08/07 07:07:09;;;;;;;3.42;1.95;;;;;;;26.47;43.52;99213.38;4483515;32;34224;-63
2021/08/07 07:09:37;;;;;;;4.18;1.75;;;;;;;26.48;43.47;99208.72;4485191;32;34104;-65
2021/08/07 07:12:06;;;;;;;4.15;2.05;;;;;;;26.49;43.51;99219.44;4474460;32;34195;-63
2021/08/07 07:14:34;;;;;;;4.05;1.90;;;;;;;26.49;43.57;99216.69;4468956;32;34530;-63
2021/08/07 07:17:02;;;;;;;4.30;2.03;;;;;;;26.50;43.35;99212.84;4469118;32;34392;-67
2021/08/07 07:19:30;;;;;;;3.70;1.87;;;;;;;26.51;43.48;99211.78;4469167;32;34860;-66
2021/08/07 07:21:58;;;;;;;7.12;2.40;;;;;;;26.52;43.39;99216.16;4469291;32;33844;-63
2021/08/07 07:24:26;;;;;;;5.93;2.08;;;;;;;26.55;43.43;99220.28;4469061;32;33516;-64
2021/08/07 07:26:53;;;;;;;5.28;2.25;;;;;;;26.53;43.37;99223.25;4469140;32;33882;-68
2021/08/07 07:29:22;;;;;;;5.10;1.90;;;;;;;26.55;43.48;99221.09;4468892;32;34195;-66
2021/08/07 07:31:49;;;;;;;8.77;2.10;;;;;;;26.57;43.54;99232.59;4469281;32;34856;-64
2021/08/07 07:34:17;;;;;;;6.05;2.10;;;;;;;26.58;43.61;99228.81;4469282;32;33802;-67
2021/08/07 07:36:45;;;;;;;3.47;1.77;;;;;;;26.58;43.64;99223.34;4469131;32;33679;-64
2021/08/07 07:39:13;;;;;;;3.20;1.80;;;;;;;26.61;43.57;99225.53;4468121;32;34176;-66
2021/08/07 07:41:41;;;;;;;8.50;2.10;;;;;;;26.63;43.54;99223.37;4468969;32;34075;-67
2021/08/07 07:44:09;;;;;;;4.00;1.80;;;;;;;26.64;43.35;99229.66;4468926;32;33615;-66
2021/08/07 07:46:36;;;;;;;4.70;1.67;;;;;;;26.65;43.35;99226.66;4469127;32;33854;-67
2021/08/07 07:49:05;;;;;;;9.50;1.95;;;;;;;26.66;43.31;99235.69;4468014;32;34479;-65
2021/08/07 07:51:33;;;;;;;11.00;2.10;;;;;;;26.67;43.28;99224.50;4468808;32;35051;-66
2021/08/07 07:54:01;;;;;;;8.15;2.80;;;;;;;26.68;43.26;99225.31;4469139;32;34410;-67
2021/08/07 07:56:29;;;;;;;4.70;1.85;;;;;;;26.68;43.22;99228.88;4468851;32;33824;-66
2021/08/07 07:58:58;;;;;;;6.32;2.35;;;;;;;26.69;43.11;99216.00;4468945;32;33655;-65
2021/08/07 08:01:25;;;;;;;8.32;2.62;;;;;;;26.69;43.16;99227.78;4468809;32;34668;-67
2021/08/07 08:03:53;;;;;;;6.30;1.90;;;;;;;26.71;43.10;99227.50;4477924;32;33268;-67
2021/08/07 08:06:21;;;;;;;8.80;1.95;;;;;;;26.73;42.97;99219.88;4484698;32;35120;-66
2021/08/07 08:08:49;;;;;;;6.25;1.80;;;;;;;26.73;43.00;99219.88;4484428;32;34023;-67
2021/08/07 08:11:16;;;;;;;7.15;2.20;;;;;;;26.74;42.96;99212.50;4484398;32;33843;-68
2021/08/07 08:13:44;;;;;;;5.47;2.10;;;;;;;26.74;43.03;99210.56;4470314;32;33914;-66
2021/08/07 08:16:11;;;;;;;6.28;2.00;;;;;;;26.76;42.95;99213.03;4484767;32;33500;-67
2021/08/07 08:18:40;;;;;;;6.03;2.03;;;;;;;26.76;42.95;99218.50;4483287;32;34103;-67
2021/08/07 08:21:07;;;;;;;6.70;1.85;;;;;;;26.78;42.96;99216.34;4483272;32;33463;-67
2021/08/07 08:23:35;;;;;;;11.27;2.47;;;;;;;26.78;43.01;99216.34;4469905;32;33179;-64
2021/08/07 08:26:03;;;;;;;8.82;2.20;;;;;;;26.79;42.98;99213.34;4484099;32;33963;-64
2021/08/07 08:28:30;;;;;;;5.70;2.28;;;;;;;26.81;42.96;99213.06;4484618;32;34003;-67
2021/08/07 08:30:58;;;;;;;7.30;2.30;;;;;;;26.79;42.98;99218.81;4484394;32;34785;-68
2021/08/07 08:33:27;;;;;;;4.82;1.67;;;;;;;26.80;42.92;99208.69;4484402;32;33731;-66
2021/08/07 08:35:55;;;;;;;8.55;2.65;;;;;;;26.82;42.87;99220.22;4481828;32;33835;-66
2021/08/07 08:38:22;;;;;;;5.12;2.20;;;;;;;26.81;42.86;99218.56;4482893;32;33964;-64
2021/08/07 08:41:00;;;;;;;4.35;2.03;;;;;;;26.81;42.85;99222.09;4484358;32;33622;-67
2021/08/07 08:43:29;;;;;;;3.70;1.87;;;;;;;26.84;42.88;99223.50;4484233;32;33367;-68
2021/08/07 08:45:58;;;;;;;5.32;2.10;;;;;;;26.83;42.90;99222.69;4484599;32;34810;-67
2021/08/07 08:48:26;;;;;;;6.40;1.92;;;;;;;26.85;42.96;99220.50;4460358;32;34176;-68
2021/08/07 08:50:53;;;;;;;5.00;2.08;;;;;;;26.87;43.04;99220.25;4481369;32;34618;-70
2021/08/07 08:53:21;;;;;;;5.10;1.77;;;;;;;26.89;43.02;99220.81;4469818;32;33506;-70
2021/08/07 08:55:49;;;;;;;22.45;2.75;;;;;;;26.89;43.09;99212.59;4484195;32;33852;-64
2021/08/07 08:58:16;;;;;;;11.68;2.50;;;;;;;26.89;43.14;99213.41;4482826;32;34165;-65
2021/08/07 09:00:45;;;;;;;8.07;2.20;;;;;;;26.91;43.13;99204.97;4484202;32;33777;-65
2021/08/07 09:03:13;;;;;;;9.15;2.47;;;;;;;26.91;42.97;99210.44;4484394;32;33577;-65
2021/08/07 09:05:41;;;;;;;6.68;2.28;;;;;;;26.92;42.99;99217.56;4484428;32;34249;-65
2021/08/07 09:08:09;;;;;;;8.70;2.40;;;;;;;26.92;42.94;99217.56;4483993;32;33881;-64
2021/08/07 09:10:37;;;;;;;11.12;2.40;;;;;;;26.91;42.92;99219.47;4484435;32;34110;-65
2021/08/07 09:13:06;;;;;;;4.32;2.10;;;;;;;26.92;42.91;99217.56;4484142;32;34239;-65
2021/08/07 09:15:35;;;;;;;6.57;2.00;;;;;;;26.91;42.90;99218.66;4483404;32;34656;-65
2021/08/07 09:18:09;;;;;;;5.40;1.87;;;;;;;26.92;42.88;99221.09;4483335;32;33844;-65
2021/08/07 09:20:39;;;;;;;9.55;2.53;;;;;;;26.93;42.84;99225.50;4468573;32;34323;-65
2021/08/07 09:23:07;;;;;;;11.30;2.58;;;;;;;26.92;42.83;99226.59;4473787;32;33801;-63
2021/08/07 09:25:39;;;;;;;7.45;1.90;;;;;;;26.91;42.81;99218.66;4484172;32;33951;-65
2021/08/07 09:28:06;;;;;;;12.45;2.50;;;;;;;26.91;42.81;99216.72;4482695;32;33629;-65
2021/08/07 09:30:38;;;;;;;7.05;2.03;;;;;;;26.92;42.78;99223.03;4469724;32;35019;-64
2021/08/07 09:33:12;;;;;;;8.93;2.20;;;;;;;26.91;42.78;99215.91;4484125;32;34734;-65
2021/08/07 09:35:41;;;;;;;4.70;2.00;;;;;;;26.90;42.76;99217.78;4483665;32;34761;-63
2021/08/07 09:38:19;;;;;;;8.00;2.30;;;;;;;26.91;42.72;99218.66;4484130;32;33564;-65
2021/08/07 09:40:54;;;;;;;7.50;2.00;;;;;;;26.91;42.70;99219.47;4482822;32;34621;-65
2021/08/07 09:43:34;;;;;;;6.80;2.20;;;;;;;26.91;42.71;99221.38;4483744;32;33426;-64
2021/08/07 09:46:10;;;;;;;4.45;2.00;;;;;;;26.92;42.71;99223.03;4483677;32;34771;-65
2021/08/07 09:48:41;;;;;;;6.87;2.17;;;;;;;26.92;42.69;99217.56;4483429;32;34866;-65
2021/08/07 09:51:27;;;;;;;;;;;;;;;26.90;42.70;99206.84;4483797;32;33913;-64
2021/08/07 09:54:18;;;;;;;7.45;2.00;;;;;;;27.01;42.46;99209.66;4484038;32;34189;-65
2021/08/07 09:56:54;;;;;;;7.85;2.10;;;;;;;26.93;42.62;99203.59;4483682;32;35525;-64
2021/08/07 09:59:24;;;;;;;5.70;1.73;;;;;;;26.90;42.69;99198.63;4483647;32;34263;-64
2021/08/07 10:01:54;;;;;;;7.87;2.40;;;;;;;26.90;42.72;99203.28;4483905;32;33933;-65
2021/08/07 10:04:22;;;;;;;4.95;2.03;;;;;;;26.89;42.71;99191.50;4485734;32;33545;-64
2021/08/07 10:07:10;;;;;;;5.85;1.65;;;;;;;26.90;42.69;99197.81;4485476;32;33865;-65
2021/08/07 10:09:38;;;;;;;5.28;1.85;;;;;;;26.89;42.71;99191.50;4484681;32;34149;-65
2021/08/07 10:12:07;;;;;;;6.53;1.90;;;;;;;26.91;42.70;99196.75;4485603;32;34257;-65
2021/08/07 10:14:35;;;;;;;4.85;1.92;;;;;;;26.89;42.72;99190.69;4483932;32;33784;-65
2021/08/07 10:17:05;;;;;;;4.75;1.62;;;;;;;26.90;42.69;99197.81;4484475;32;34338;-65
2021/08/07 10:19:33;;;;;;;5.70;2.50;;;;;;;26.90;42.71;99203.28;4485335;32;35220;-65
2021/08/07 10:22:06;;;;;;;7.85;2.05;;;;;;;26.91;42.68;99199.47;4485270;32;33857;-65
2021/08/07 10:24:36;;;;;;;5.40;1.75;;;;;;;26.90;42.70;99192.34;4485663;32;34009;-65
2021/08/07 10:27:04;;;;;;;5.65;2.20;;;;;;;26.90;42.70;99187.69;4485240;32;33789;-65
2021/08/07 10:29:43;;;;;;;4.18;1.60;;;;;;;26.91;42.68;99197.56;4485597;32;33984;-64
2021/08/07 10:32:12;;;;;;;;;;;;;;;26.91;42.73;99192.09;4484482;32;33949;-64
2021/08/07 10:34:43;;;;;;;3.70;1.87;;;;;;;27.02;42.47;99181.19;4483923;32;33411;-65
2021/08/07 10:37:12;;;;;;;4.07;1.95;;;;;;;26.93;42.62;99180.88;4484284;32;34105;-64
2021/08/07 10:39:40;;;;;;;4.55;2.00;;;;;;;26.91;42.68;99191.28;4485199;32;34537;-65
2021/08/07 10:42:07;;;;;;;4.30;1.75;;;;;;;26.90;42.69;99184.94;4485299;32;34168;-65
2021/08/07 10:44:35;;;;;;;3.87;1.60;;;;;;;26.90;42.67;99186.84;4483754;32;34673;-64
2021/08/07 10:47:03;;;;;;;4.25;1.80;;;;;;;26.91;42.69;99185.78;4483849;32;33970;-65
2021/08/07 10:49:37;;;;;;;3.70;2.00;;;;;;;26.90;42.68;99178.66;4485543;32;34012;-65
2021/08/07 10:52:20;;;;;;;4.68;2.08;;;;;;;26.91;42.65;99172.09;4485484;32;33963;-63
2021/08/07 10:54:48;;;;;;;3.15;1.48;;;;;;;26.93;42.66;99169.91;4485210;32;33858;-64
2021/08/07 10:57:38;;;;;;;3.47;1.90;;;;;;;26.90;42.68;99168.50;4485266;32;33929;-64
2021/08/07 11:00:17;;;;;;;5.07;1.80;;;;;;;26.93;42.69;99168.00;4484436;32;34328;-65
2021/08/07 11:02:45;;;;;;;4.97;1.70;;;;;;;26.92;42.68;99163.63;4484830;32;34219;-65
2021/08/07 11:05:13;;;;;;;4.43;1.75;;;;;;;26.91;42.70;99155.69;4484967;32;33533;-65
2021/08/07 11:07:41;;;;;;;3.97;1.60;;;;;;;26.89;42.69;99155.94;4485207;32;35248;-65
2021/08/07 11:10:12;;;;;;;5.12;1.80;;;;;;;26.91;42.71;99155.69;4485154;32;34006;-65
2021/08/07 11:12:45;;;;;;;4.80;1.87;;;;;;;26.91;42.70;99156.50;4483514;32;34064;-62
2021/08/07 11:15:15;;;;;;;3.12;1.77;;;;;;;26.92;42.73;99155.41;4483244;32;33601;-65
2021/08/07 11:17:44;;;;;;;4.70;1.80;;;;;;;26.92;42.71;99155.41;4483670;32;34006;-65
2021/08/07 11:20:34;;;;;;;5.57;1.70;;;;;;;26.92;42.71;99149.94;4484928;32;34093;-63
2021/08/07 11:23:02;;;;;;;4.72;1.95;;;;;;;26.96;42.67;99133.81;4484677;32;34606;-64
2021/08/07 11:25:29;;;;;;;7.18;1.87;;;;;;;26.93;42.71;99128.84;4485199;32;33969;-63
2021/08/07 11:27:58;;;;;;;3.53;1.80;;;;;;;26.93;42.69;99126.13;4470491;32;34628;-65
2021/08/07 11:30:27;;;;;;;3.53;1.60;;;;;;;26.94;42.64;99122.28;4484560;32;34100;-63
2021/08/07 11:32:55;;;;;;;3.97;1.92;;;;;;;26.93;42.74;99126.94;4485100;32;33507;-64
2021/08/07 11:35:38;;;;;;;3.87;1.77;;;;;;;26.94;42.69;99134.06;4484810;32;33039;-65
2021/08/07 11:38:05;;;;;;;5.60;2.12;;;;;;;26.95;42.69;99135.72;4484938;32;33962;-63
2021/08/07 11:40:38;;;;;;;4.03;1.60;;;;;;;26.93;42.69;99135.16;4483995;32;34128;-65
2021/08/07 11:43:11;;;;;;;5.43;2.05;;;;;;;26.94;42.75;99133.22;4484568;32;34602;-65
2021/08/07 11:45:39;;;;;;;4.07;1.67;;;;;;;26.94;42.74;99135.97;4484490;32;33442;-64
2021/08/07 11:48:07;;;;;;;3.67;1.50;;;;;;;26.94;42.73;99141.44;4484895;32;34518;-65